createdAt,value
2023-05-19T00:05:31.236Z,99557.63
2023-05-19T00:19:04.689Z,99556.91
2023-05-19T00:21:09.350Z,99563.13
2023-05-19T00:23:12.137Z,99572.94
2023-05-19T00:25:14.668Z,99567.16
2023-05-19T00:27:17.276Z,99568.19
2023-05-19T00:29:19.911Z,99576.78
2023-05-19T00:31:22.795Z,99564.81
2023-05-19T00:33:25.777Z,99568.28
2023-05-19T00:35:28.311Z,99574.00
2023-05-19T00:37:31.027Z,99566.41
2023-05-19T00:39:33.575Z,99572.59
2023-05-19T00:41:36.417Z,99570.53
2023-05-19T00:43:39.131Z,99578.81
2023-05-19T00:45:41.779Z,99594.09
2023-05-19T00:47:44.563Z,99593.31
2023-05-19T00:49:47.320Z,99593.50
2023-05-19T00:51:50.143Z,99593.84
2023-05-19T00:53:52.988Z,99589.00
2023-05-19T00:55:55.814Z,99586.91
2023-05-19T00:57:58.829Z,99578.84
2023-05-19T01:00:01.467Z,99584.16
2023-05-19T01:02:08.152Z,99584.63
2023-05-19T01:04:11.516Z,99589.13
2023-05-19T01:06:15.208Z,99577.53
2023-05-19T01:08:18.397Z,99580.88
2023-05-19T01:10:21.254Z,99584.59
2023-05-19T01:12:24.098Z,99575.84
2023-05-19T01:14:27.389Z,99575.28
2023-05-19T01:16:43.652Z,99578.03
2023-05-19T01:19:12.424Z,99584.69
2023-05-19T01:21:36.658Z,99581.81
2023-05-19T01:24:09.239Z,99579.88
2023-05-19T01:26:20.778Z,99584.91
2023-05-19T01:28:43.064Z,99580.56
2023-05-19T01:30:52.800Z,99584.81
2023-05-19T01:33:03.381Z,99591.81
2023-05-19T01:35:08.411Z,99585.13
2023-05-19T01:37:15.119Z,99583.97
2023-05-19T01:39:17.753Z,99583.19
2023-05-19T01:41:23.129Z,99581.56
2023-05-19T01:43:27.584Z,99583.97
2023-05-19T01:45:32.618Z,99583.19
2023-05-19T01:47:38.582Z,99584.81
2023-05-19T01:49:41.473Z,99590.31
2023-05-19T01:51:44.300Z,99585.59
2023-05-19T01:53:47.004Z,99589.97
2023-05-19T01:55:52.648Z,99595.97
2023-05-19T01:58:19.222Z,99592.06
2023-05-19T02:00:54.344Z,99592.88
2023-05-19T02:03:09.346Z,99581.03
2023-05-19T02:05:29.665Z,99578.75
2023-05-19T02:07:48.825Z,99589.41
2023-05-19T02:10:05.013Z,99584.59
2023-05-19T02:12:18.886Z,99588.72
2023-05-19T02:14:46.063Z,99582.53
2023-05-19T02:16:49.420Z,99578.63
2023-05-19T02:18:54.101Z,99577.59
2023-05-19T02:20:56.840Z,99573.81
2023-05-19T02:22:59.386Z,99587.41
2023-05-19T02:25:02.334Z,99575.31
2023-05-19T02:27:06.506Z,99586.16
2023-05-19T02:29:09.065Z,99585.13
2023-05-19T02:31:11.794Z,99589.75
2023-05-19T02:33:14.449Z,99586.75
2023-05-19T02:35:17.410Z,99588.47
2023-05-19T02:37:23.928Z,99588.63
2023-05-19T02:39:26.782Z,99575.22
2023-05-19T02:41:29.538Z,99576.28
2023-05-19T02:43:32.215Z,99580.78
2023-05-19T02:45:34.877Z,99584.44
2023-05-19T02:47:38.489Z,99582.28
2023-05-19T02:49:41.438Z,99582.38
2023-05-19T02:51:44.076Z,99581.72
2023-05-19T02:53:46.653Z,99581.03
2023-05-19T02:55:49.353Z,99580.78
2023-05-19T02:57:51.940Z,99580.22
2023-05-19T02:59:54.573Z,99586.28
2023-05-19T03:02:02.098Z,99583.31
2023-05-19T03:04:04.986Z,99590.19
2023-05-19T03:06:10.844Z,99586.72
2023-05-19T03:08:13.496Z,99587.19
2023-05-19T03:10:16.179Z,99585.81
2023-05-19T03:12:18.935Z,99589.03
2023-05-19T03:14:24.265Z,99584.28
2023-05-19T03:16:28.330Z,99595.22
2023-05-19T03:18:31.210Z,99590.84
2023-05-19T03:20:34.082Z,99590.94
2023-05-19T03:22:37.074Z,99592.56
2023-05-19T03:24:39.704Z,99582.66
2023-05-19T03:26:42.955Z,99590.59
2023-05-19T03:28:45.616Z,99592.31
2023-05-19T03:30:50.231Z,99591.50
2023-05-19T03:32:53.427Z,99585.50
2023-05-19T03:34:56.127Z,99595.97
2023-05-19T03:36:58.652Z,99589.66
2023-05-19T03:39:01.311Z,99591.72
2023-05-19T03:41:04.236Z,99597.16
2023-05-19T03:43:07.454Z,99596.34
2023-05-19T03:45:10.417Z,99597.94
2023-05-19T03:47:13.078Z,99591.50
2023-05-19T03:49:15.796Z,99604.19
2023-05-19T03:51:18.797Z,99598.28
2023-05-19T03:53:21.660Z,99596.44
2023-05-19T03:55:24.369Z,99596.91
2023-05-19T03:57:27.227Z,99598.63
2023-05-19T03:59:29.808Z,99594.78
2023-05-19T04:01:32.433Z,99598.56
2023-05-19T04:03:35.279Z,99587.59
2023-05-19T04:05:38.502Z,99597.69
2023-05-19T04:07:41.829Z,99595.59
2023-05-19T04:09:45.323Z,99608.06
2023-05-19T04:11:48.013Z,99597.06
2023-05-19T04:13:50.756Z,99598.88
2023-05-19T04:15:53.630Z,99594.41
2023-05-19T04:17:56.327Z,99594.59
2023-05-19T04:19:58.989Z,99599.06
2023-05-19T04:22:01.691Z,99593.69
2023-05-19T04:24:06.552Z,99603.03
2023-05-19T04:26:09.409Z,99606.31
2023-05-19T04:28:13.104Z,99598.97
2023-05-19T04:30:22.458Z,99595.22
2023-05-19T04:32:25.820Z,99603.72
2023-05-19T04:34:28.838Z,99589.22
2023-05-19T04:36:31.386Z,99590.19
2023-05-19T04:38:34.633Z,99592.38
2023-05-19T04:40:37.342Z,99587.03
2023-05-19T04:42:43.246Z,99591.16
2023-05-19T04:44:46.255Z,99588.53
2023-05-19T04:46:50.222Z,99579.63
2023-05-19T04:48:55.450Z,99583.38
2023-05-19T04:50:58.014Z,99584.66
2023-05-19T04:53:01.040Z,99580.09
2023-05-19T04:55:04.357Z,99591.47
2023-05-19T04:57:10.613Z,99598.72
2023-05-19T04:59:13.332Z,99592.50
2023-05-19T05:01:16.206Z,99579.03
2023-05-19T05:03:19.356Z,99601.84
2023-05-19T05:05:22.071Z,99594.38
2023-05-19T05:07:24.750Z,99594.47
2023-05-19T05:09:27.330Z,99592.16
2023-05-19T05:11:30.271Z,99595.84
2023-05-19T05:13:33.296Z,99590.00
2023-05-19T05:15:36.173Z,99600.44
2023-05-19T05:17:39.270Z,99604.50
2023-05-19T05:19:42.399Z,99603.03
2023-05-19T05:21:45.987Z,99603.09
2023-05-19T05:23:49.399Z,99602.81
2023-05-19T05:25:52.158Z,99615.66
2023-05-19T05:27:54.924Z,99606.97
2023-05-19T05:29:59.221Z,99611.00
2023-05-19T05:32:02.412Z,99611.44
2023-05-19T05:34:05.310Z,99611.44
2023-05-19T05:36:08.372Z,99617.06
2023-05-19T05:38:11.713Z,99615.53
2023-05-19T05:40:14.517Z,99610.41
2023-05-19T05:42:17.160Z,99616.50
2023-05-19T05:44:19.730Z,99613.75
2023-05-19T05:46:22.288Z,99615.78
2023-05-19T05:48:25.334Z,99615.50
2023-05-19T05:50:28.293Z,99617.59
2023-05-19T05:52:32.645Z,99614.84
2023-05-19T05:54:35.939Z,99613.28
2023-05-19T05:56:38.876Z,99613.28
2023-05-19T05:58:41.600Z,99618.50
2023-05-19T06:00:44.490Z,99623.41
2023-05-19T06:02:50.704Z,99620.28
2023-05-19T06:04:54.310Z,99622.31
2023-05-19T06:07:01.321Z,99625.56
2023-05-19T06:09:04.691Z,99626.09
2023-05-19T06:11:09.217Z,99623.31
2023-05-19T06:13:11.896Z,99625.41
2023-05-19T06:15:14.492Z,99624.69
2023-05-19T06:17:17.088Z,99621.06
2023-05-19T06:19:22.941Z,99622.69
2023-05-19T06:21:25.859Z,99619.03
2023-05-19T06:23:29.299Z,99627.81
2023-05-19T06:25:32.337Z,99625.50
2023-05-19T06:27:35.744Z,99619.13
2023-05-19T06:29:38.380Z,99627.91
2023-05-19T06:31:41.081Z,99625.94
2023-05-19T06:33:43.687Z,99625.59
2023-05-19T06:35:46.244Z,99626.50
2023-05-19T06:37:48.948Z,99625.31
2023-05-19T06:39:54.017Z,99632.81
2023-05-19T06:41:56.649Z,99629.19
2023-05-19T06:43:59.749Z,99627.94
2023-05-19T06:46:02.602Z,99628.00
2023-05-19T06:48:05.773Z,99631.22
2023-05-19T06:50:11.238Z,99635.22
2023-05-19T06:52:13.874Z,99630.56
2023-05-19T06:54:16.596Z,99630.63
2023-05-19T06:56:19.494Z,99637.00
2023-05-19T06:58:22.142Z,99635.41
2023-05-19T07:00:25.204Z,99635.47
2023-05-19T07:02:28.009Z,99635.50
2023-05-19T07:04:30.693Z,99637.16
2023-05-19T07:06:34.050Z,99640.38
2023-05-19T07:08:37.527Z,99636.91
2023-05-19T07:10:40.199Z,99630.19
2023-05-19T07:12:43.007Z,99635.03
2023-05-19T07:14:45.706Z,99650.66
2023-05-19T07:16:48.303Z,99648.38
2023-05-19T07:18:51.115Z,99642.00
2023-05-19T07:20:54.175Z,99645.59
2023-05-19T07:22:56.822Z,99649.97
2023-05-19T07:24:59.580Z,99651.94
2023-05-19T07:27:02.331Z,99640.84
2023-05-19T07:29:04.972Z,99650.50
2023-05-19T07:31:07.514Z,99639.38
2023-05-19T07:33:10.229Z,99645.00
2023-05-19T07:35:13.226Z,99642.28
2023-05-19T07:37:16.821Z,99631.50
2023-05-19T07:39:19.779Z,99636.78
2023-05-19T07:41:23.156Z,99641.28
2023-05-19T07:43:25.837Z,99642.59
2023-05-19T07:45:31.410Z,99633.13
2023-05-19T07:47:34.226Z,99637.53
2023-05-19T07:49:36.868Z,99631.22
2023-05-19T07:51:39.512Z,99635.28
2023-05-19T07:53:42.036Z,99635.69
2023-05-19T07:55:44.624Z,99641.66
2023-05-19T07:57:47.479Z,99630.94
2023-05-19T07:59:50.218Z,99635.75
2023-05-19T08:01:53.026Z,99631.38
2023-05-19T08:03:55.981Z,99635.44
2023-05-19T08:05:58.549Z,99642.69
2023-05-19T08:08:01.225Z,99645.47
2023-05-19T08:10:04.298Z,99635.13
2023-05-19T08:12:07.836Z,99639.56
2023-05-19T08:14:11.041Z,99635.56
2023-05-19T08:16:13.669Z,99639.19
2023-05-19T08:18:17.396Z,99640.41
2023-05-19T08:20:20.499Z,99636.44
2023-05-19T08:22:23.390Z,99636.47
2023-05-19T08:24:26.596Z,99630.06
2023-05-19T08:26:29.507Z,99639.25
2023-05-19T08:28:32.358Z,99632.84
2023-05-19T08:30:35.243Z,99639.25
2023-05-19T08:32:38.269Z,99638.53
2023-05-19T08:34:41.574Z,99638.13
2023-05-19T08:36:45.478Z,99630.56
2023-05-19T08:38:48.115Z,99635.75
2023-05-19T08:40:50.891Z,99630.94
2023-05-19T08:42:54.603Z,99636.53
2023-05-19T08:44:57.682Z,99633.38
2023-05-19T08:47:12.939Z,99637.34
2023-05-19T08:49:20.542Z,99623.78
2023-05-19T08:51:44.846Z,99625.00
2023-05-19T08:53:53.908Z,99632.19
2023-05-19T08:56:10.130Z,99640.19
2023-05-19T08:58:13.493Z,99635.84
2023-05-19T09:00:17.225Z,99637.44
2023-05-19T09:02:20.316Z,99636.66
2023-05-19T09:04:25.999Z,99636.63
2023-05-19T09:06:32.525Z,99642.25
2023-05-19T09:08:36.202Z,99637.47
2023-05-19T09:10:38.809Z,99632.25
2023-05-19T09:12:43.250Z,99637.03
2023-05-19T09:14:45.902Z,99632.66
2023-05-19T09:16:51.211Z,99625.06
2023-05-19T09:18:57.684Z,99625.47
2023-05-19T09:21:03.148Z,99632.63
2023-05-19T09:23:06.298Z,99627.81
2023-05-19T09:25:19.767Z,99637.41
2023-05-19T09:27:23.711Z,99630.59
2023-05-19T09:29:26.347Z,99633.00
2023-05-19T09:31:33.390Z,99627.00
2023-05-19T09:33:45.634Z,99625.03
2023-05-19T09:35:48.654Z,99618.63
2023-05-19T09:37:51.328Z,99618.59
2023-05-19T09:39:54.281Z,99617.78
2023-05-19T09:41:59.965Z,99612.63
2023-05-19T09:44:02.729Z,99627.03
2023-05-19T09:46:11.986Z,99612.59
2023-05-19T09:48:16.666Z,99623.41
2023-05-19T09:50:19.307Z,99614.22
2023-05-19T09:52:22.366Z,99604.63
2023-05-19T09:54:25.687Z,99611.41
2023-05-19T09:56:34.472Z,99603.38
2023-05-19T09:58:37.803Z,99610.16
2023-05-19T10:00:41.001Z,99609.31
2023-05-19T10:02:48.460Z,99610.06
2023-05-19T10:04:53.533Z,99611.66
2023-05-19T10:06:59.911Z,99612.03
2023-05-19T10:09:04.512Z,99612.34
2023-05-19T10:11:07.880Z,99610.69
2023-05-19T10:13:10.962Z,99607.09
2023-05-19T10:15:15.702Z,99616.28
2023-05-19T10:17:18.850Z,99619.09
2023-05-19T10:19:23.222Z,99617.91
2023-05-19T10:21:26.303Z,99617.13
2023-05-19T10:23:28.928Z,99615.09
2023-05-19T10:25:33.797Z,99608.19
2023-05-19T10:27:40.867Z,99609.28
2023-05-19T10:29:50.137Z,99598.69
2023-05-19T10:31:55.322Z,99605.44
2023-05-19T10:34:19.342Z,99596.13
2023-05-19T10:36:24.842Z,99591.81
2023-05-19T10:38:52.683Z,99596.88
2023-05-19T10:41:08.405Z,99599.25
2023-05-19T10:43:38.633Z,99596.97
2023-05-19T10:45:49.708Z,99594.00
2023-05-19T10:47:52.531Z,99600.78
2023-05-19T10:49:56.025Z,99597.22
2023-05-19T10:51:58.661Z,99591.19
2023-05-19T10:54:11.473Z,99593.09
2023-05-19T10:56:34.878Z,99590.25
2023-05-19T10:58:44.166Z,99595.97
2023-05-19T11:00:47.222Z,99596.69
2023-05-19T11:02:56.281Z,99591.00
2023-05-19T11:05:20.547Z,99592.03
2023-05-19T11:07:24.972Z,99595.09
2023-05-19T11:09:37.932Z,99591.84
2023-05-19T11:11:54.343Z,99590.94
2023-05-19T11:13:57.654Z,99579.75
2023-05-19T11:16:08.345Z,99590.44
2023-05-19T11:18:16.199Z,99584.69
2023-05-19T11:20:25.839Z,99586.13
2023-05-19T11:22:28.922Z,99578.69
2023-05-19T11:24:44.711Z,99574.34
2023-05-19T11:26:47.670Z,99579.19
2023-05-19T11:28:52.189Z,99582.31
2023-05-19T11:30:57.883Z,99569.13
2023-05-19T11:33:01.294Z,99575.13
2023-05-19T11:35:03.946Z,99575.13
2023-05-19T11:37:10.129Z,99572.16
2023-05-19T11:39:13.648Z,99574.88
2023-05-19T11:41:18.199Z,99576.75
2023-05-19T11:43:27.685Z,99573.31
2023-05-19T11:45:33.295Z,99577.97
2023-05-19T11:47:50.833Z,99577.78
2023-05-19T11:49:59.194Z,99573.50
2023-05-19T11:52:02.409Z,99578.88
2023-05-19T11:54:05.126Z,99567.59
2023-05-19T11:56:07.804Z,99572.97
2023-05-19T11:58:10.377Z,99577.69
2023-05-19T12:00:14.825Z,99576.84
2023-05-19T12:02:20.404Z,99572.47
2023-05-19T12:04:23.598Z,99565.44
2023-05-19T12:06:27.115Z,99563.94
2023-05-19T12:08:29.996Z,99565.63
2023-05-19T12:10:34.393Z,99568.63
2023-05-19T12:12:36.967Z,99563.13
2023-05-19T12:14:39.654Z,99571.69
2023-05-19T12:16:42.418Z,99570.03
2023-05-19T12:18:45.142Z,99571.63
2023-05-19T12:20:48.037Z,99565.53
2023-05-19T12:22:52.027Z,99564.81
2023-05-19T12:24:54.944Z,99566.25
2023-05-19T12:27:10.376Z,99569.13
2023-05-19T12:29:13.803Z,99566.34
2023-05-19T12:31:16.603Z,99559.34
2023-05-19T12:33:19.922Z,99568.00
2023-05-19T12:35:27.032Z,99573.66
2023-05-19T12:37:33.476Z,99573.34
2023-05-19T12:39:36.532Z,99570.38
2023-05-19T12:41:39.154Z,99568.06
2023-05-19T12:43:41.805Z,99567.34
2023-05-19T12:45:44.473Z,99562.66
2023-05-19T12:47:50.537Z,99572.78
2023-05-19T12:50:04.110Z,99570.34
2023-05-19T12:52:12.752Z,99561.94
2023-05-19T12:54:19.796Z,99570.28
2023-05-19T12:56:27.138Z,99570.75
2023-05-19T12:58:34.715Z,99572.22
2023-05-19T13:00:42.635Z,99569.59
2023-05-19T13:03:02.259Z,99575.25
2023-05-19T13:05:05.353Z,99576.81
2023-05-19T13:07:08.022Z,99575.53
2023-05-19T13:09:11.605Z,99577.31
2023-05-19T13:11:16.803Z,99570.97
2023-05-19T13:13:20.276Z,99580.09
2023-05-19T13:15:27.090Z,99585.25
2023-05-19T13:17:30.946Z,99585.38
2023-05-19T13:19:34.389Z,99585.41
2023-05-19T13:21:38.714Z,99594.66
2023-05-19T13:23:42.150Z,99589.97
2023-05-19T13:25:45.542Z,99592.06
2023-05-19T13:27:50.442Z,99592.94
2023-05-19T13:29:53.806Z,99599.69
2023-05-19T13:31:57.770Z,99597.91
2023-05-19T13:34:03.129Z,99603.34
2023-05-19T13:36:06.466Z,99611.63
2023-05-19T13:38:10.605Z,99599.00
2023-05-19T13:40:14.134Z,99596.50
2023-05-19T13:42:17.831Z,99598.84
2023-05-19T13:44:20.486Z,99604.88
2023-05-19T13:46:32.770Z,99605.19
2023-05-19T13:48:45.794Z,99608.31
2023-05-19T13:50:48.472Z,99618.53
2023-05-19T13:52:51.193Z,99607.97
2023-05-19T13:54:57.022Z,99611.88
2023-05-19T13:57:00.151Z,99610.84
2023-05-19T13:59:04.247Z,99614.47
2023-05-19T14:01:07.157Z,99614.22
2023-05-19T14:03:10.483Z,99606.44
2023-05-19T14:05:13.672Z,99626.69
2023-05-19T14:07:17.038Z,99625.47
2023-05-19T14:09:20.049Z,99619.91
2023-05-19T14:11:22.922Z,99618.22
2023-05-19T14:13:34.270Z,99616.75
2023-05-19T14:15:39.157Z,99619.94
2023-05-19T14:17:42.275Z,99619.84
2023-05-19T14:19:45.072Z,99622.94
2023-05-19T14:21:47.755Z,99622.34
2023-05-19T14:23:50.452Z,99624.41
2023-05-19T14:25:53.362Z,99631.44
2023-05-19T14:27:55.996Z,99618.91
2023-05-19T14:29:58.787Z,99620.50
2023-05-19T14:32:03.501Z,99625.63
2023-05-19T14:34:06.390Z,99625.09
2023-05-19T14:36:09.765Z,99630.59
2023-05-19T14:38:13.378Z,99631.75
2023-05-19T14:40:16.046Z,99618.50
2023-05-19T14:42:18.705Z,99629.72
2023-05-19T14:44:21.407Z,99619.50
2023-05-19T14:46:24.042Z,99625.94
2023-05-19T14:48:26.705Z,99628.41
2023-05-19T14:50:29.538Z,99634.22
2023-05-19T14:52:32.278Z,99638.66
2023-05-19T14:54:34.915Z,99627.72
2023-05-19T14:56:37.773Z,99634.22
2023-05-19T14:58:40.386Z,99631.13
2023-05-19T15:00:43.715Z,99633.25
2023-05-19T15:02:46.785Z,99634.91
2023-05-19T15:04:49.573Z,99634.75
2023-05-19T15:07:05.978Z,99638.03
2023-05-19T15:09:14.855Z,99644.00
2023-05-19T15:11:17.724Z,99652.03
2023-05-19T15:13:21.657Z,99642.75
2023-05-19T15:15:24.470Z,99648.25
2023-05-19T15:17:27.164Z,99639.72
2023-05-19T15:19:29.959Z,99658.38
2023-05-19T15:21:32.808Z,99654.44
2023-05-19T15:23:35.413Z,99665.59
2023-05-19T15:25:38.238Z,99661.44
2023-05-19T15:27:41.004Z,99660.72
2023-05-19T15:29:43.897Z,99664.31
2023-05-19T15:31:46.570Z,99673.00
2023-05-19T15:33:49.326Z,99666.09
2023-05-19T15:35:52.466Z,99672.59
2023-05-19T15:37:55.235Z,99674.06
2023-05-19T15:39:58.005Z,99664.84
2023-05-19T15:42:00.791Z,99675.28
2023-05-19T15:44:03.582Z,99673.19
2023-05-19T15:46:06.437Z,99675.34
2023-05-19T15:48:09.334Z,99681.59
2023-05-19T15:50:14.775Z,99672.47
2023-05-19T15:52:17.703Z,99680.19
2023-05-19T15:54:20.575Z,99680.66
2023-05-19T15:56:23.232Z,99683.03
2023-05-19T15:58:26.045Z,99679.38
2023-05-19T16:00:28.868Z,99678.84
2023-05-19T16:02:31.631Z,99688.78
2023-05-19T16:04:34.437Z,99686.72
2023-05-19T16:06:37.126Z,99690.19
2023-05-19T16:08:39.877Z,99688.06
2023-05-19T16:10:42.545Z,99691.81
2023-05-19T16:12:45.298Z,99685.00
2023-05-19T16:14:47.944Z,99688.53
2023-05-19T16:16:50.756Z,99690.84
2023-05-19T16:18:53.689Z,99693.81
2023-05-19T16:20:56.862Z,99688.63
2023-05-19T16:22:59.611Z,99694.44
2023-05-19T16:25:02.299Z,99698.28
2023-05-19T16:27:07.598Z,99695.31
2023-05-19T16:29:10.388Z,99700.25
2023-05-19T16:31:13.168Z,99712.88
2023-05-19T16:33:16.185Z,99705.41
2023-05-19T16:35:18.934Z,99710.28
2023-05-19T16:37:21.786Z,99718.53
2023-05-19T16:39:24.404Z,99721.66
2023-05-19T16:41:27.117Z,99711.16
2023-05-19T16:43:29.731Z,99719.44
2023-05-19T16:45:32.644Z,99730.03
2023-05-19T16:47:35.780Z,99725.22
2023-05-19T16:49:40.574Z,99718.41
2023-05-19T16:51:43.328Z,99718.25
2023-05-19T16:53:46.377Z,99719.38
2023-05-19T16:55:49.022Z,99714.00
2023-05-19T16:57:51.733Z,99711.81
2023-05-19T16:59:54.368Z,99715.78
2023-05-19T17:01:57.124Z,99724.81
2023-05-19T17:03:59.823Z,99734.25
2023-05-19T17:06:02.742Z,99733.75
2023-05-19T17:08:06.286Z,99730.03
2023-05-19T17:10:09.583Z,99732.16
2023-05-19T17:12:12.461Z,99737.66
2023-05-19T17:14:15.343Z,99731.22
2023-05-19T17:16:18.421Z,99748.72
2023-05-19T17:18:21.422Z,99745.34
2023-05-19T17:20:24.093Z,99741.69
2023-05-19T17:22:28.268Z,99740.38
2023-05-19T17:24:33.502Z,99738.72
2023-05-19T17:26:36.246Z,99745.81
2023-05-19T17:28:39.283Z,99737.28
2023-05-19T17:30:42.487Z,99733.91
2023-05-19T17:32:45.286Z,99741.97
2023-05-19T17:34:47.990Z,99736.25
2023-05-19T17:36:50.794Z,99738.25
2023-05-19T17:38:53.621Z,99743.06
2023-05-19T17:41:03.037Z,99735.63
2023-05-19T17:43:06.384Z,99740.09
2023-05-19T17:45:12.185Z,99745.09
2023-05-19T17:47:17.657Z,99740.56
2023-05-19T17:49:21.284Z,99737.44
2023-05-19T17:51:24.213Z,99741.03
2023-05-19T17:53:27.771Z,99740.63
2023-05-19T17:55:31.616Z,99736.56
2023-05-19T17:57:35.727Z,99741.03
2023-05-19T17:59:38.956Z,99735.16
2023-05-19T18:01:42.012Z,99730.25
2023-05-19T18:03:49.664Z,99734.47
2023-05-19T18:05:52.916Z,99729.00
2023-05-19T18:07:57.286Z,99737.69
2023-05-19T18:10:01.751Z,99741.06
2023-05-19T18:12:06.970Z,99743.75
2023-05-19T18:14:09.598Z,99737.31
2023-05-19T18:16:13.124Z,99745.53
2023-05-19T18:18:15.886Z,99745.19
2023-05-19T18:20:18.731Z,99742.31
2023-05-19T18:22:21.521Z,99735.97
2023-05-19T18:24:24.216Z,99745.97
2023-05-19T18:26:26.965Z,99745.34
2023-05-19T18:28:29.902Z,99745.63
2023-05-19T18:30:32.857Z,99736.56
2023-05-19T18:32:35.670Z,99733.97
2023-05-19T18:34:38.316Z,99738.59
2023-05-19T18:36:41.751Z,99741.16
2023-05-19T18:38:44.483Z,99734.72
2023-05-19T18:40:47.240Z,99729.19
2023-05-19T18:42:50.521Z,99730.34
2023-05-19T18:44:53.335Z,99733.00
2023-05-19T18:46:56.059Z,99718.03
2023-05-19T18:48:58.699Z,99729.25
2023-05-19T18:51:03.698Z,99724.56
2023-05-19T18:53:06.704Z,99728.53
2023-05-19T18:55:10.124Z,99730.41
2023-05-19T18:57:13.135Z,99724.16
2023-05-19T18:59:15.957Z,99716.31
2023-05-19T19:01:18.847Z,99727.91
2023-05-19T19:03:21.702Z,99718.44
2023-05-19T19:05:24.463Z,99720.22
2023-05-19T19:07:27.964Z,99715.59
2023-05-19T19:09:30.821Z,99718.13
2023-05-19T19:11:33.541Z,99718.03
2023-05-19T19:13:36.443Z,99710.31
2023-05-19T19:15:39.977Z,99705.34
2023-05-19T19:17:42.639Z,99705.25
2023-05-19T19:19:45.514Z,99709.84
2023-05-19T19:21:48.366Z,99708.91
2023-05-19T19:23:56.526Z,99703.28
2023-05-19T19:25:59.366Z,99704.66
2023-05-19T19:28:02.592Z,99700.84
2023-05-19T19:30:05.923Z,99694.94
2023-05-19T19:32:11.246Z,99696.75
2023-05-19T19:34:16.208Z,99704.16
2023-05-19T19:36:18.863Z,99703.22
2023-05-19T19:38:21.619Z,99702.41
2023-05-19T19:40:25.206Z,99706.78
2023-05-19T19:42:28.189Z,99717.50
2023-05-19T19:44:30.833Z,99707.25
2023-05-19T19:46:33.578Z,99700.44
2023-05-19T19:48:36.429Z,99706.78
2023-05-19T19:50:39.111Z,99716.44
2023-05-19T19:52:41.771Z,99704.78
2023-05-19T19:54:44.528Z,99701.94
2023-05-19T19:56:47.529Z,99703.28
2023-05-19T19:58:50.722Z,99703.13
2023-05-19T20:01:02.031Z,99701.75
2023-05-19T20:03:06.011Z,99701.16
2023-05-19T20:05:09.188Z,99703.19
2023-05-19T20:07:12.649Z,99705.94
2023-05-19T20:09:16.273Z,99708.72
2023-05-19T20:11:20.013Z,99705.94
2023-05-19T20:13:22.756Z,99707.91
2023-05-19T20:15:25.485Z,99712.31
2023-05-19T20:17:28.168Z,99706.78
2023-05-19T20:19:31.030Z,99705.84
2023-05-19T20:21:33.990Z,99708.59
2023-05-19T20:23:38.990Z,99704.88
2023-05-19T20:25:53.647Z,99711.34
2023-05-19T20:28:02.348Z,99715.59
2023-05-19T20:30:05.943Z,99723.75
2023-05-19T20:32:11.401Z,99714.66
2023-05-19T20:34:14.117Z,99708.19
2023-05-19T20:36:16.808Z,99721.56
2023-05-19T20:38:19.552Z,99719.47
2023-05-19T20:40:22.271Z,99724.03
2023-05-19T20:42:24.912Z,99708.16
2023-05-19T20:44:27.504Z,99718.50
2023-05-19T20:46:30.268Z,99712.53
2023-05-19T20:48:33.154Z,99718.06
2023-05-19T20:50:35.848Z,99717.59
2023-05-19T20:52:38.607Z,99716.78
2023-05-19T20:54:41.273Z,99718.25
2023-05-19T20:56:43.925Z,99718.59
2023-05-19T20:58:46.931Z,99725.59
2023-05-19T21:00:54.317Z,99719.13
2023-05-19T21:02:57.157Z,99719.81
2023-05-19T21:04:59.988Z,99723.69
2023-05-19T21:07:02.787Z,99722.44
2023-05-19T21:09:07.005Z,99729.44
2023-05-19T21:11:09.798Z,99720.66
2023-05-19T21:13:12.600Z,99721.03
2023-05-19T21:15:15.894Z,99719.41
2023-05-19T21:17:19.354Z,99729.97
2023-05-19T21:19:23.123Z,99724.31
2023-05-19T21:21:26.310Z,99722.69
2023-05-19T21:23:29.049Z,99726.13
2023-05-19T21:25:31.963Z,99726.44
2023-05-19T21:27:35.685Z,99726.81
2023-05-19T21:29:38.486Z,99728.41
2023-05-19T21:31:41.329Z,99726.63
2023-05-19T21:33:44.251Z,99723.38
2023-05-19T21:35:47.200Z,99730.69
2023-05-19T21:37:49.829Z,99731.38
2023-05-19T21:39:52.790Z,99728.50
2023-05-19T21:41:55.669Z,99727.53
2023-05-19T21:43:58.363Z,99734.19
2023-05-19T21:46:01.291Z,99736.94
2023-05-19T21:48:04.196Z,99738.91
2023-05-19T21:50:07.563Z,99738.41
2023-05-19T21:52:10.527Z,99735.22
2023-05-19T21:54:13.283Z,99736.22
2023-05-19T21:56:16.740Z,99739.41
2023-05-19T21:58:19.757Z,99733.78
2023-05-19T22:00:22.978Z,99733.16
2023-05-19T22:02:25.771Z,99729.75
2023-05-19T22:04:31.630Z,99726.41
2023-05-19T22:06:34.491Z,99726.25
2023-05-19T22:08:37.397Z,99727.72
2023-05-19T22:10:40.114Z,99722.50
2023-05-19T22:12:42.777Z,99726.75
2023-05-19T22:14:45.309Z,99727.09
2023-05-19T22:16:47.842Z,99733.72
2023-05-19T22:18:50.601Z,99731.31
2023-05-19T22:20:53.338Z,99733.59
2023-05-19T22:22:57.458Z,99734.41
2023-05-19T22:25:00.177Z,99733.44
2023-05-19T22:27:02.796Z,99731.47
2023-05-19T22:29:05.322Z,99732.94
2023-05-19T22:31:07.906Z,99726.16
2023-05-19T22:33:12.118Z,99729.59
2023-05-19T22:35:14.752Z,99726.34
2023-05-19T22:37:17.433Z,99719.06
2023-05-19T22:39:20.046Z,99721.69
2023-05-19T22:41:22.807Z,99718.44
2023-05-19T22:43:25.716Z,99717.16
2023-05-19T22:45:28.225Z,99719.09
2023-05-19T22:47:30.858Z,99711.47
2023-05-19T22:49:33.509Z,99716.66
2023-05-19T22:51:36.118Z,99715.38
2023-05-19T22:53:38.665Z,99713.25
2023-05-19T22:55:41.376Z,99716.84
2023-05-19T22:57:43.949Z,99714.41
2023-05-19T22:59:46.672Z,99717.16
2023-05-19T23:01:49.553Z,99719.94
2023-05-19T23:03:52.184Z,99719.13
2023-05-19T23:05:54.811Z,99723.00
2023-05-19T23:07:57.429Z,99724.16
2023-05-19T23:10:00.173Z,99721.41
2023-05-19T23:12:02.794Z,99717.00
2023-05-19T23:14:05.840Z,99723.66
2023-05-19T23:16:08.651Z,99720.41
2023-05-19T23:18:11.809Z,99725.94
2023-05-19T23:20:14.587Z,99726.59
2023-05-19T23:22:17.403Z,99728.06
2023-05-19T23:24:19.956Z,99725.94
2023-05-19T23:26:22.636Z,99717.06
2023-05-19T23:28:25.247Z,99722.88
2023-05-19T23:30:30.461Z,99730.19
2023-05-19T23:32:33.260Z,99731.31
2023-05-19T23:34:35.842Z,99727.28
2023-05-19T23:36:38.502Z,99729.53
2023-05-19T23:38:41.135Z,99721.63
2023-05-19T23:40:44.097Z,99729.41
2023-05-19T23:42:46.716Z,99724.53
2023-05-19T23:44:49.454Z,99722.91
2023-05-19T23:46:52.041Z,99723.22
2023-05-19T23:48:54.760Z,99723.22
2023-05-19T23:50:58.514Z,99718.84
2023-05-19T23:53:01.055Z,99724.34
2023-05-19T23:55:03.907Z,99721.09
2023-05-19T23:57:08.164Z,99718.66
2023-05-19T23:59:11.319Z,99720.31
